createdAt,value
2023-05-20T00:01:30.047Z,16.03
2023-05-20T00:03:58.118Z,16.04
2023-05-20T00:06:27.434Z,15.99
2023-05-20T00:08:55.779Z,15.94
2023-05-20T00:11:23.447Z,15.91
2023-05-20T00:13:51.536Z,15.88
2023-05-20T00:16:19.321Z,15.88
2023-05-20T00:18:47.020Z,15.88
2023-05-20T00:21:14.703Z,15.89
2023-05-20T00:23:43.966Z,15.84
2023-05-20T00:26:11.736Z,15.84
2023-05-20T00:28:39.530Z,15.83
2023-05-20T00:31:07.272Z,15.83
2023-05-20T00:33:36.312Z,15.84
2023-05-20T00:36:04.063Z,15.78
2023-05-20T00:38:31.868Z,15.82
2023-05-20T00:41:01.035Z,15.82
2023-05-20T00:43:28.772Z,15.83
2023-05-20T00:45:56.802Z,15.80
2023-05-20T00:48:24.668Z,15.82
2023-05-20T00:50:53.097Z,15.85
2023-05-20T00:53:21.366Z,15.84
2023-05-20T00:55:49.161Z,15.84
2023-05-20T00:58:18.272Z,15.82
2023-05-20T01:00:45.921Z,15.81
2023-05-20T01:03:14.024Z,15.82
2023-05-20T01:05:42.529Z,15.82
2023-05-20T01:08:10.747Z,15.84
2023-05-20T01:10:41.491Z,15.85
2023-05-20T01:13:11.938Z,15.85
2023-05-20T01:15:41.787Z,15.84
2023-05-20T01:18:10.730Z,15.85
2023-05-20T01:20:39.448Z,15.85
2023-05-20T01:23:08.659Z,15.88
2023-05-20T01:25:36.536Z,15.89
2023-05-20T01:28:04.576Z,15.89
2023-05-20T01:30:37.139Z,15.90
2023-05-20T01:33:09.332Z,15.88
2023-05-20T01:35:37.512Z,15.87
2023-05-20T01:38:06.164Z,15.85
2023-05-20T01:40:35.721Z,15.85
2023-05-20T01:43:04.018Z,15.82
2023-05-20T01:45:32.679Z,15.78
2023-05-20T01:48:01.686Z,15.74
2023-05-20T01:50:29.473Z,15.74
2023-05-20T01:52:57.175Z,15.72
2023-05-20T01:55:24.932Z,15.72
2023-05-20T01:57:56.853Z,15.68
2023-05-20T02:00:24.533Z,15.63
2023-05-20T02:02:52.368Z,15.66
2023-05-20T02:05:20.200Z,15.66
2023-05-20T02:07:48.061Z,15.66
2023-05-20T02:10:15.934Z,15.65
2023-05-20T02:12:43.750Z,15.58
2023-05-20T02:15:12.884Z,15.56
2023-05-20T02:17:43.662Z,15.54
2023-05-20T02:20:12.239Z,15.55
2023-05-20T02:22:39.999Z,15.54
2023-05-20T02:25:09.347Z,15.53
2023-05-20T02:27:37.008Z,15.53
2023-05-20T02:30:05.561Z,15.53
2023-05-20T02:32:34.806Z,15.53
2023-05-20T02:35:02.578Z,15.52
2023-05-20T02:37:30.297Z,15.51
2023-05-20T02:39:58.060Z,15.49
2023-05-20T02:42:25.768Z,15.47
2023-05-20T02:44:56.504Z,15.44
2023-05-20T02:47:24.286Z,15.42
2023-05-20T02:49:53.382Z,15.42
2023-05-20T02:52:21.988Z,15.41
2023-05-20T02:54:49.688Z,15.37
2023-05-20T02:57:17.386Z,15.32
2023-05-20T02:59:45.080Z,15.30
2023-05-20T03:02:12.864Z,15.28
2023-05-20T03:04:41.117Z,15.28
2023-05-20T03:07:10.457Z,15.27
2023-05-20T03:09:38.104Z,15.28
2023-05-20T03:12:06.329Z,15.23
2023-05-20T03:14:34.040Z,15.24
2023-05-20T03:17:01.956Z,15.22
2023-05-20T03:19:30.025Z,15.20
2023-05-20T03:21:57.955Z,15.19
2023-05-20T03:24:27.039Z,15.18
2023-05-20T03:26:54.857Z,15.15
2023-05-20T03:29:23.305Z,15.12
2023-05-20T03:31:51.212Z,15.12
2023-05-20T03:34:19.258Z,15.12
2023-05-20T03:36:47.206Z,15.11
2023-05-20T03:39:14.951Z,15.10
2023-05-20T03:41:44.090Z,15.07
2023-05-20T03:44:11.760Z,15.04
2023-05-20T03:46:39.508Z,15.02
2023-05-20T03:49:07.257Z,15.03
2023-05-20T03:51:34.912Z,15.00
2023-05-20T03:54:02.677Z,14.98
2023-05-20T03:56:30.440Z,14.96
2023-05-20T03:58:59.639Z,14.91
2023-05-20T04:01:27.254Z,14.91
2023-05-20T04:03:55.071Z,14.88
2023-05-20T04:06:23.040Z,14.86
2023-05-20T04:08:51.391Z,14.83
2023-05-20T04:11:19.170Z,14.82
2023-05-20T04:13:46.867Z,14.80
2023-05-20T04:16:16.098Z,14.83
2023-05-20T04:18:46.043Z,14.85
2023-05-20T04:21:13.852Z,14.82
2023-05-20T04:23:41.772Z,14.83
2023-05-20T04:26:09.460Z,14.83
2023-05-20T04:28:37.776Z,14.82
2023-05-20T04:31:05.691Z,14.81
2023-05-20T04:33:37.905Z,14.80
2023-05-20T04:36:07.608Z,14.78
2023-05-20T04:38:35.989Z,14.72
2023-05-20T04:41:04.017Z,14.72
2023-05-20T04:43:31.851Z,14.71
2023-05-20T04:46:01.404Z,14.73
2023-05-20T04:48:29.163Z,14.72
2023-05-20T04:50:58.250Z,14.72
2023-05-20T04:53:26.121Z,14.74
2023-05-20T04:55:56.878Z,14.76
2023-05-20T04:58:25.375Z,14.78
2023-05-20T05:00:53.768Z,14.78
2023-05-20T05:03:21.501Z,14.80
2023-05-20T05:05:49.200Z,14.81
2023-05-20T05:08:18.372Z,14.82
2023-05-20T05:10:46.600Z,14.84
2023-05-20T05:13:14.424Z,14.91
2023-05-20T05:15:42.287Z,14.91
2023-05-20T05:18:10.238Z,14.91
2023-05-20T05:20:38.005Z,14.90
2023-05-20T05:23:05.729Z,14.89
2023-05-20T05:25:35.113Z,14.89
2023-05-20T05:28:02.962Z,14.87
2023-05-20T05:30:30.736Z,14.86
2023-05-20T05:32:58.578Z,14.85
2023-05-20T05:35:26.440Z,14.86
2023-05-20T05:37:54.149Z,14.86
2023-05-20T05:40:21.923Z,14.87
2023-05-20T05:42:50.889Z,14.90
2023-05-20T05:45:18.546Z,14.91
2023-05-20T05:47:46.333Z,14.90
2023-05-20T05:50:14.049Z,14.91
2023-05-20T05:52:41.740Z,14.93
2023-05-20T05:55:10.584Z,14.95
2023-05-20T05:57:38.254Z,15.02
2023-05-20T06:00:08.979Z,15.09
2023-05-20T06:02:37.169Z,15.14
2023-05-20T06:05:05.648Z,15.17
2023-05-20T06:07:33.455Z,15.14
2023-05-20T06:10:01.177Z,15.19
2023-05-20T06:12:28.900Z,15.18
2023-05-20T06:14:56.632Z,15.17
2023-05-20T06:17:25.831Z,15.18
2023-05-20T06:19:53.594Z,15.22
2023-05-20T06:22:21.315Z,15.27
2023-05-20T06:24:49.096Z,15.36
2023-05-20T06:27:16.809Z,15.33
2023-05-20T06:29:44.482Z,15.34
2023-05-20T06:32:12.281Z,15.36
2023-05-20T06:34:41.856Z,15.42
2023-05-20T06:37:09.574Z,15.45
2023-05-20T06:39:37.406Z,15.48
2023-05-20T06:42:05.388Z,15.50
2023-05-20T06:44:33.125Z,15.51
2023-05-20T06:47:00.842Z,15.57
2023-05-20T06:49:28.536Z,15.62
2023-05-20T06:51:57.667Z,15.65
2023-05-20T06:54:25.455Z,15.69
2023-05-20T06:56:53.099Z,15.74
2023-05-20T06:59:20.805Z,15.75
2023-05-20T07:01:48.605Z,15.75
2023-05-20T07:04:16.466Z,15.82
2023-05-20T07:06:44.294Z,15.85
2023-05-20T07:09:13.412Z,15.86
2023-05-20T07:11:41.129Z,15.88
2023-05-20T07:14:09.178Z,15.90
2023-05-20T07:16:36.964Z,15.96
2023-05-20T07:19:04.979Z,15.97
2023-05-20T07:21:32.692Z,15.98
2023-05-20T07:24:00.444Z,15.99
2023-05-20T07:26:33.480Z,16.04
2023-05-20T07:29:01.984Z,16.11
2023-05-20T07:31:29.789Z,16.18
2023-05-20T07:33:57.637Z,16.21
2023-05-20T07:36:27.199Z,16.26
2023-05-20T07:39:02.394Z,16.33
2023-05-20T07:41:34.233Z,16.40
2023-05-20T07:44:03.417Z,16.46
2023-05-20T07:46:31.192Z,16.48
2023-05-20T07:48:59.002Z,16.52
2023-05-20T07:51:27.185Z,16.55
2023-05-20T07:53:54.896Z,16.57
2023-05-20T07:56:23.126Z,16.57
2023-05-20T07:58:55.715Z,16.59
2023-05-20T08:01:23.438Z,16.61
2023-05-20T08:03:51.396Z,16.63
2023-05-20T08:06:20.540Z,16.70
2023-05-20T08:08:48.735Z,16.75
2023-05-20T08:11:16.550Z,16.81
2023-05-20T08:13:44.909Z,16.83
2023-05-20T08:16:14.084Z,16.84
2023-05-20T08:18:41.897Z,16.88
2023-05-20T08:21:09.943Z,16.99
2023-05-20T08:23:40.334Z,17.07
2023-05-20T08:26:08.227Z,17.16
2023-05-20T08:28:37.188Z,17.21
2023-05-20T08:31:05.337Z,17.28
2023-05-20T08:33:34.469Z,17.35
2023-05-20T08:36:02.245Z,17.40
2023-05-20T08:38:29.983Z,17.45
2023-05-20T08:40:58.194Z,17.48
2023-05-20T08:43:26.465Z,17.55
2023-05-20T08:45:54.928Z,17.58
2023-05-20T08:48:24.522Z,17.65
2023-05-20T08:50:54.342Z,17.66
2023-05-20T08:53:23.286Z,17.70
2023-05-20T08:55:55.173Z,17.74
2023-05-20T08:58:23.527Z,17.80
2023-05-20T09:00:53.002Z,17.85
2023-05-20T09:03:21.656Z,17.99
2023-05-20T09:05:49.409Z,18.03
2023-05-20T09:08:18.518Z,18.04
2023-05-20T09:10:46.250Z,18.05
2023-05-20T09:13:14.012Z,18.10
2023-05-20T09:15:41.918Z,18.16
2023-05-20T09:18:09.758Z,18.21
2023-05-20T09:20:38.555Z,18.23
2023-05-20T09:23:07.469Z,18.17
2023-05-20T09:25:37.834Z,18.10
2023-05-20T09:28:06.256Z,18.07
2023-05-20T09:30:34.090Z,18.12
2023-05-20T09:33:04.708Z,18.15
2023-05-20T09:35:32.683Z,18.15
2023-05-20T09:38:00.727Z,18.16
2023-05-20T09:40:29.995Z,18.18
2023-05-20T09:43:03.533Z,18.28
2023-05-20T09:45:31.789Z,18.38
2023-05-20T09:48:01.046Z,18.39
2023-05-20T09:50:29.240Z,18.41
2023-05-20T09:52:56.934Z,18.42
2023-05-20T09:55:26.085Z,18.43
2023-05-20T09:57:55.075Z,18.43
2023-05-20T10:00:24.522Z,18.44
2023-05-20T10:02:53.400Z,18.46
2023-05-20T10:05:22.609Z,18.54
2023-05-20T10:08:28.905Z,18.59
2023-05-20T10:11:04.226Z,18.64
2023-05-20T10:13:44.138Z,18.64
2023-05-20T10:16:23.800Z,18.67
2023-05-20T10:18:57.147Z,18.68
2023-05-20T10:21:26.058Z,18.64
2023-05-20T10:23:53.797Z,18.64
2023-05-20T10:26:21.861Z,18.67
2023-05-20T10:28:50.204Z,18.69
2023-05-20T10:31:21.873Z,18.74
2023-05-20T10:33:50.143Z,18.83
2023-05-20T10:36:26.133Z,18.95
2023-05-20T10:38:55.176Z,19.08
2023-05-20T10:41:25.167Z,19.15
2023-05-20T10:44:03.148Z,19.29
2023-05-20T10:46:41.873Z,19.39
2023-05-20T10:49:22.475Z,19.48
2023-05-20T10:51:52.130Z,19.44
2023-05-20T10:54:19.813Z,19.40
2023-05-20T10:56:52.974Z,19.33
2023-05-20T10:59:21.464Z,19.29
2023-05-20T11:01:50.654Z,19.28
2023-05-20T11:04:19.691Z,19.32
2023-05-20T11:06:57.141Z,19.41
2023-05-20T11:09:24.947Z,19.54
2023-05-20T11:11:54.374Z,19.63
2023-05-20T11:14:23.153Z,19.72
2023-05-20T11:16:57.735Z,19.71
2023-05-20T11:19:26.328Z,19.67
2023-05-20T11:21:54.232Z,19.63
2023-05-20T11:24:27.137Z,19.62
2023-05-20T11:26:55.432Z,19.58
2023-05-20T11:29:23.238Z,19.58
2023-05-20T11:33:57.596Z,19.57
2023-05-20T11:36:27.842Z,19.51
2023-05-20T11:38:57.968Z,19.44
2023-05-20T11:41:25.853Z,19.48
2023-05-20T11:43:58.470Z,19.67
2023-05-20T11:46:26.366Z,19.83
2023-05-20T11:48:55.257Z,19.97
2023-05-20T11:51:28.767Z,20.09
2023-05-20T11:54:00.836Z,20.19
2023-05-20T11:56:29.846Z,20.34
2023-05-20T11:58:58.712Z,20.37
2023-05-20T12:01:28.204Z,20.37
2023-05-20T12:03:56.354Z,20.30
2023-05-20T12:06:24.153Z,20.34
2023-05-20T12:08:53.386Z,20.27
2023-05-20T12:11:21.873Z,20.21
2023-05-20T12:13:49.639Z,20.18
2023-05-20T12:16:17.393Z,20.22
2023-05-20T12:18:45.233Z,20.29
2023-05-20T12:22:37.690Z,20.22
2023-05-20T12:25:06.451Z,20.23
2023-05-20T12:27:35.873Z,20.26
2023-05-20T12:30:03.696Z,20.32
2023-05-20T12:32:31.587Z,20.44
2023-05-20T12:34:59.392Z,20.51
2023-05-20T12:37:27.108Z,20.57
2023-05-20T12:39:56.226Z,20.61
2023-05-20T12:42:23.936Z,20.65
2023-05-20T12:44:51.718Z,20.65
2023-05-20T12:47:19.871Z,20.61
2023-05-20T12:49:47.599Z,20.58
2023-05-20T12:52:22.369Z,20.49
2023-05-20T12:54:50.747Z,20.65
2023-05-20T12:57:20.024Z,20.78
2023-05-20T12:59:47.684Z,20.83
2023-05-20T13:02:15.449Z,20.84
2023-05-20T13:05:31.313Z,20.90
2023-05-20T13:07:59.042Z,20.96
2023-05-20T13:10:27.091Z,20.95
2023-05-20T13:12:54.786Z,20.94
2023-05-20T13:15:22.540Z,20.96
2023-05-20T13:17:50.298Z,20.96
2023-05-20T13:20:32.577Z,20.99
2023-05-20T13:23:01.871Z,21.00
2023-05-20T13:25:29.644Z,20.94
2023-05-20T13:27:57.638Z,20.85
2023-05-20T13:30:25.582Z,20.76
2023-05-20T13:32:53.455Z,20.73
2023-05-20T13:35:21.410Z,20.73
2023-05-20T13:37:49.269Z,20.86
2023-05-20T13:40:18.611Z,20.92
2023-05-20T16:12:46.180Z,18.69
2023-05-20T16:15:13.979Z,19.07
2023-05-20T16:17:41.839Z,19.40
2023-05-20T16:21:52.152Z,19.87
2023-05-20T16:24:19.887Z,20.08
2023-05-20T16:26:47.565Z,20.24
2023-05-20T16:29:16.650Z,20.35
2023-05-20T16:31:46.713Z,20.46
2023-05-20T16:34:15.728Z,20.51
2023-05-20T16:36:46.917Z,20.54
2023-05-20T16:39:16.474Z,20.57
2023-05-20T16:41:44.304Z,20.59
2023-05-20T16:46:31.566Z,20.61
2023-05-20T16:48:59.307Z,20.63
2023-05-20T16:51:37.073Z,20.64
2023-05-20T16:54:04.978Z,20.57
2023-05-20T16:56:33.374Z,20.56
2023-05-20T16:59:01.441Z,20.60
2023-05-20T17:01:29.624Z,20.70
2023-05-20T17:03:57.455Z,20.75
2023-05-20T17:06:25.323Z,20.80
2023-05-20T17:08:54.428Z,20.77
2023-05-20T17:11:22.558Z,20.75
2023-05-20T17:13:50.288Z,20.74
2023-05-20T17:16:18.026Z,20.69
2023-05-20T17:18:45.796Z,20.65
2023-05-20T17:21:15.704Z,20.61
2023-05-20T17:23:43.595Z,20.56
2023-05-20T17:26:12.798Z,20.51
2023-05-20T17:29:31.606Z,20.40
2023-05-20T17:31:59.343Z,20.36
2023-05-20T17:34:27.104Z,20.35
2023-05-20T17:36:54.828Z,20.40
2023-05-20T17:39:22.518Z,20.43
2023-05-20T17:41:50.530Z,20.46
2023-05-20T17:44:18.340Z,20.44
2023-05-20T17:46:48.617Z,20.41
2023-05-20T17:49:16.813Z,20.36
2023-05-20T17:51:46.066Z,20.26
2023-05-20T17:54:14.044Z,20.30
2023-05-20T17:56:42.091Z,20.27
2023-05-20T17:59:10.046Z,20.25
2023-05-20T18:01:37.908Z,20.20
2023-05-20T18:04:07.055Z,20.12
2023-05-20T18:06:35.389Z,20.06
2023-05-20T18:09:03.647Z,20.04
2023-05-20T18:11:32.063Z,20.00
2023-05-20T18:14:00.175Z,19.99
2023-05-20T18:16:28.677Z,19.95
2023-05-20T18:18:56.583Z,19.95
2023-05-20T18:21:26.437Z,19.95
2023-05-20T18:23:54.441Z,19.91
2023-05-20T18:26:22.621Z,19.88
2023-05-20T18:28:51.113Z,19.92
2023-05-20T18:31:18.932Z,19.90
2023-05-20T18:33:46.676Z,19.86
2023-05-20T18:36:14.489Z,19.85
2023-05-20T18:38:44.993Z,19.83
2023-05-20T18:41:12.793Z,19.81
2023-05-20T18:43:40.642Z,19.77
2023-05-20T18:46:08.474Z,19.78
2023-05-20T18:48:36.465Z,19.79
2023-05-20T18:51:04.481Z,19.78
2023-05-20T18:53:32.540Z,19.78
2023-05-20T18:56:03.268Z,19.74
2023-05-20T18:58:31.032Z,19.73
2023-05-20T19:00:58.855Z,19.69
2023-05-20T19:03:26.635Z,19.70
2023-05-20T19:05:54.410Z,19.68
2023-05-20T19:08:23.167Z,19.61
